Time;durP1;ratioP1;P1;durP2;ratioP2;P2;SDS_P1;SDS_P2;PMS_P1;PMS_P2;Temp;Humidity;BMP_temperature;BMP_pressure;BME280_temperature;BME280_humidity;BME280_pressure;Samples;Min_cycle;Max_cycle;Signal;HPM_P1;HPM_P2
2023/03/02 00:00:46;;;;;;;0.73;0.73;;;2.30;99.90;;;;;;5029854;28;20055;-79
2023/03/02 00:03:17;;;;;;;0.70;0.70;;;2.30;99.90;;;;;;5035197;28;20074;-80
2023/03/02 00:05:45;;;;;;;0.77;0.77;;;2.30;99.90;;;;;;5043506;28;20082;-80
2023/03/02 00:08:15;;;;;;;0.82;0.82;;;2.30;99.90;;;;;;5044130;28;20548;-81
2023/03/02 00:10:40;;;;;;;0.60;0.60;;;2.20;99.90;;;;;;5043737;28;20032;-80
2023/03/02 00:13:06;;;;;;;0.60;0.60;;;2.20;99.90;;;;;;5047059;28;20096;-81
2023/03/02 00:15:32;;;;;;;0.77;0.77;;;2.20;99.90;;;;;;5014985;28;20386;-81
2023/03/02 00:17:58;;;;;;;0.70;0.70;;;2.20;99.90;;;;;;5041047;28;20048;-79
2023/03/02 00:20:23;;;;;;;0.68;0.68;;;2.10;99.90;;;;;;5048499;28;20059;-80
2023/03/02 00:22:49;;;;;;;0.88;0.88;;;2.40;99.90;;;;;;5033351;28;20048;-81
2023/03/02 00:25:16;;;;;;;0.80;0.80;;;2.10;99.90;;;;;;5047769;28;20474;-80
2023/03/02 00:27:42;;;;;;;0.60;0.60;;;2.10;99.90;;;;;;5034505;28;20482;-80
2023/03/02 00:30:09;;;;;;;0.80;0.80;;;2.50;99.90;;;;;;5043561;28;20094;-80
2023/03/02 00:32:35;;;;;;;0.70;0.70;;;2.10;99.90;;;;;;5033659;22;20051;-83
2023/03/02 00:35:01;;;;;;;0.77;0.77;;;2.00;99.90;;;;;;4935598;28;20493;-85
2023/03/02 00:37:26;;;;;;;0.80;0.80;;;2.00;99.90;;;;;;4968632;28;20085;-85
2023/03/02 00:39:52;;;;;;;0.80;0.80;;;2.00;99.90;;;;;;4949415;28;20709;-85
2023/03/02 00:42:18;;;;;;;0.85;0.85;;;1.90;99.90;;;;;;4969736;28;20027;-84
2023/03/02 00:44:44;;;;;;;0.70;0.70;;;2.00;99.90;;;;;;4971147;28;20057;-85
2023/03/02 00:47:10;;;;;;;0.77;0.77;;;1.90;99.90;;;;;;4953723;28;20039;-85
2023/03/02 00:49:35;;;;;;;0.70;0.70;;;2.20;99.90;;;;;;4969249;28;20051;-86
2023/03/02 00:52:02;;;;;;;0.68;0.68;;;2.30;99.90;;;;;;4967687;28;20058;-85
2023/03/02 00:54:28;;;;;;;0.82;0.82;;;3.20;99.90;;;;;;4967049;28;20047;-86
2023/03/02 00:56:54;;;;;;;0.70;0.70;;;1.70;99.90;;;;;;4954985;28;20042;-85
2023/03/02 00:59:26;;;;;;;0.90;0.90;;;1.70;99.90;;;;;;4943559;28;20080;-86
2023/03/02 01:01:58;;;;;;;0.70;0.70;;;2.00;99.90;;;;;;4945251;28;20027;-85
2023/03/02 01:04:30;;;;;;;0.80;0.80;;;1.50;99.90;;;;;;4971141;28;20039;-85
2023/03/02 01:07:20;;;;;;;0.60;0.60;;;2.90;99.90;;;;;;4968814;28;20299;-85
2023/03/02 01:09:47;;;;;;;0.80;0.80;;;1.70;99.90;;;;;;4951814;28;20662;-85
2023/03/02 01:12:13;;;;;;;0.65;0.65;;;1.70;99.90;;;;;;5016647;28;20104;-85
2023/03/02 01:14:41;;;;;;;0.73;0.73;;;2.20;99.90;;;;;;4937195;28;20202;-85
2023/03/02 01:17:09;;;;;;;0.70;0.70;;;1.70;99.90;;;;;;4974865;28;20057;-85
2023/03/02 01:19:35;;;;;;;0.70;0.70;;;1.70;99.90;;;;;;4954513;28;20054;-84
2023/03/02 01:22:03;;;;;;;1.00;1.00;;;2.10;99.90;;;;;;4959315;28;20062;-86
2023/03/02 01:24:29;;;;;;;0.60;0.60;;;1.70;99.90;;;;;;4969871;28;20086;-86
2023/03/02 01:26:54;;;;;;;0.70;0.70;;;1.70;99.90;;;;;;4971273;28;20084;-85
2023/03/02 01:29:20;;;;;;;0.65;0.65;;;2.80;99.90;;;;;;4937944;28;20093;-86
2023/03/02 01:31:46;;;;;;;0.65;0.65;;;1.80;99.90;;;;;;4971777;28;20046;-85
2023/03/02 01:34:12;;;;;;;0.70;0.70;;;2.10;99.90;;;;;;4949126;28;20066;-86
2023/03/02 01:36:38;;;;;;;0.60;0.60;;;1.80;99.90;;;;;;4969401;28;20050;-84
2023/03/02 01:39:04;;;;;;;0.80;0.80;;;3.50;99.90;;;;;;4964801;28;20433;-86
2023/03/02 01:41:30;;;;;;;0.65;0.65;;;1.80;99.90;;;;;;4968777;28;20059;-85
2023/03/02 01:43:56;;;;;;;;;;;2.00;99.90;;;;;;4969761;28;20489;-87
2023/03/02 01:46:26;;;;;;;0.70;0.70;;;1.80;99.90;;;;;;4967724;28;19968;-84
2023/03/02 01:48:55;;;;;;;0.75;0.75;;;1.70;99.90;;;;;;4967840;28;20860;-87
2023/03/02 01:51:24;;;;;;;0.60;0.60;;;1.80;99.90;;;;;;4969582;28;20070;-87
2023/03/02 01:53:54;;;;;;;0.60;0.60;;;3.10;99.90;;;;;;4953027;28;20051;-83
2023/03/02 01:56:24;;;;;;;0.70;0.70;;;1.80;99.90;;;;;;4969020;28;20135;-86
2023/03/02 01:58:55;;;;;;;0.60;0.60;;;1.70;99.90;;;;;;4968911;28;20046;-86
2023/03/02 02:01:21;;;;;;;0.65;0.65;;;3.00;99.90;;;;;;4977774;28;20074;-85
2023/03/02 02:03:49;;;;;;;;;;;2.20;99.90;;;;;;4952258;28;20042;-85
2023/03/02 02:06:31;;;;;;;0.70;0.70;;;2.10;99.90;;;;;;4954403;28;20590;-86
2023/03/02 02:09:00;;;;;;;0.70;0.70;;;3.30;99.90;;;;;;4970183;28;20497;-88
2023/03/02 02:11:25;;;;;;;0.70;0.70;;;2.70;99.90;;;;;;4957541;28;20043;-86
2023/03/02 02:13:59;;;;;;;0.60;0.60;;;2.40;99.90;;;;;;4966195;28;20556;-86
2023/03/02 02:16:27;;;;;;;0.60;0.60;;;1.70;99.90;;;;;;4969857;28;20104;-86
2023/03/02 02:18:53;;;;;;;0.70;0.70;;;1.70;99.90;;;;;;4970954;28;20050;-86
2023/03/02 02:21:20;;;;;;;0.80;0.80;;;2.00;99.90;;;;;;4967454;28;20100;-83
2023/03/02 02:24:10;;;;;;;0.60;0.60;;;1.30;99.90;;;;;;4968425;28;20055;-83
2023/03/02 02:26:40;;;;;;;0.68;0.68;;;1.70;99.90;;;;;;4968589;28;20502;-84
2023/03/02 02:29:21;;;;;;;0.75;0.75;;;1.60;99.90;;;;;;4952363;28;20146;-85
2023/03/02 02:32:10;;;;;;;0.70;0.70;;;1.60;99.90;;;;;;4950383;28;20054;-84
2023/03/02 02:34:48;;;;;;;0.80;0.80;;;1.60;99.90;;;;;;4961188;28;20056;-86
2023/03/02 02:37:15;;;;;;;;;;;1.60;99.90;;;;;;4951007;28;20042;-86
2023/03/02 02:39:45;;;;;;;0.70;0.70;;;2.00;99.90;;;;;;4968984;28;19926;-85
2023/03/02 02:42:18;;;;;;;0.60;0.60;;;1.60;99.90;;;;;;4968706;28;20054;-86
2023/03/02 02:44:45;;;;;;;0.85;0.85;;;1.60;99.90;;;;;;4967061;28;20050;-84
2023/03/02 02:47:18;;;;;;;0.60;0.60;;;2.10;99.90;;;;;;4967782;28;20051;-86
2023/03/02 02:49:46;;;;;;;0.60;0.60;;;1.60;99.90;;;;;;4951065;28;20050;-84
2023/03/02 02:52:16;;;;;;;0.57;0.57;;;2.00;99.90;;;;;;4967525;28;20523;-84
2023/03/02 02:54:48;;;;;;;0.70;0.70;;;3.20;99.90;;;;;;4968590;28;20117;-84
2023/03/02 02:57:16;;;;;;;0.60;0.60;;;1.10;99.90;;;;;;4950851;28;20129;-86
2023/03/02 02:59:52;;;;;;;0.77;0.77;;;1.70;99.90;;;;;;4966077;28;20050;-87
2023/03/02 03:02:24;;;;;;;0.60;0.60;;;1.50;99.90;;;;;;4966407;28;20596;-86
2023/03/02 03:04:50;;;;;;;0.90;0.90;;;1.50;99.90;;;;;;4948819;28;20062;-86
2023/03/02 03:07:24;;;;;;;0.50;0.50;;;2.80;99.90;;;;;;4967205;28;20050;-85
2023/03/02 03:10:14;;;;;;;0.60;0.60;;;1.30;99.90;;;;;;4947930;28;20046;-85
2023/03/02 03:12:41;;;;;;;3.10;1.77;;;1.50;99.90;;;;;;4962285;28;20043;-85
2023/03/02 03:15:08;;;;;;;0.68;0.68;;;1.50;99.90;;;;;;4966612;28;20120;-85
2023/03/02 03:17:33;;;;;;;0.60;0.60;;;1.40;99.90;;;;;;4967881;28;20150;-85
2023/03/02 03:20:04;;;;;;;0.60;0.60;;;2.00;99.90;;;;;;4934676;28;20532;-84
2023/03/02 03:22:34;;;;;;;0.60;0.60;;;1.40;99.90;;;;;;4978473;28;20487;-85
2023/03/02 03:25:00;;;;;;;0.65;0.65;;;1.40;99.90;;;;;;4975977;28;20089;-85
2023/03/02 03:27:26;;;;;;;0.60;0.60;;;1.70;99.90;;;;;;4970796;28;20410;-86
2023/03/02 03:29:51;;;;;;;1.05;1.05;;;2.30;99.90;;;;;;4963705;28;20049;-86
2023/03/02 03:32:18;;;;;;;0.70;0.70;;;2.40;99.90;;;;;;4967296;28;20058;-86
2023/03/02 03:34:45;;;;;;;0.70;0.70;;;1.50;99.90;;;;;;4966699;28;20069;-85
2023/03/02 03:37:15;;;;;;;0.90;0.90;;;1.80;99.90;;;;;;4965588;28;20051;-83
2023/03/02 03:39:42;;;;;;;0.70;0.70;;;1.70;99.90;;;;;;4967436;28;20058;-86
2023/03/02 03:42:08;;;;;;;2.72;2.17;;;1.40;99.90;;;;;;4948284;28;20048;-85
2023/03/02 03:44:34;;;;;;;0.50;0.50;;;1.40;99.90;;;;;;4965231;28;20045;-85
2023/03/02 03:47:00;;;;;;;;;;;1.40;99.90;;;;;;4966643;28;20051;-86
2023/03/02 03:49:26;;;;;;;0.70;0.70;;;2.00;99.90;;;;;;4969873;28;20001;-84
2023/03/02 03:51:52;;;;;;;0.70;0.70;;;1.30;99.90;;;;;;4953976;28;20061;-86
2023/03/02 03:54:18;;;;;;;0.60;0.60;;;2.70;99.90;;;;;;4932266;28;20046;-86
2023/03/02 03:56:46;;;;;;;0.70;0.70;;;1.50;99.90;;;;;;4970181;28;20051;-86
2023/03/02 03:59:18;;;;;;;0.60;0.60;;;2.80;99.90;;;;;;4952566;28;20051;-84
2023/03/02 04:01:47;;;;;;;0.70;0.70;;;1.40;99.90;;;;;;4970819;28;20456;-86
2023/03/02 04:04:17;;;;;;;0.70;0.70;;;1.40;99.90;;;;;;4948187;28;20096;-84
2023/03/02 04:06:44;;;;;;;0.70;0.70;;;3.20;99.90;;;;;;4968576;28;20092;-87
2023/03/02 04:09:11;;;;;;;0.88;0.88;;;1.90;99.90;;;;;;4952998;28;20235;-85
2023/03/02 04:11:39;;;;;;;0.70;0.70;;;1.30;99.90;;;;;;4954264;28;20109;-85
2023/03/02 04:14:07;;;;;;;0.70;0.70;;;1.30;99.90;;;;;;4952966;28;20054;-83
2023/03/02 04:16:33;;;;;;;0.70;0.70;;;1.50;99.90;;;;;;4968863;28;20082;-84
2023/03/02 04:18:58;;;;;;;;;;;2.40;99.90;;;;;;4955586;28;20082;-84
2023/03/02 04:21:25;;;;;;;0.70;0.70;;;1.30;99.90;;;;;;4969724;28;20095;-84
2023/03/02 04:23:51;;;;;;;3.33;1.80;;;1.20;99.90;;;;;;4954241;28;20054;-84
2023/03/02 04:26:17;;;;;;;0.70;0.70;;;1.40;99.90;;;;;;4952249;28;20072;-85
2023/03/02 04:28:43;;;;;;;;;;;2.60;99.90;;;;;;4965216;28;20043;-85
2023/03/02 04:31:09;;;;;;;0.85;0.85;;;1.70;99.90;;;;;;4956272;28;20280;-85
2023/03/02 04:33:34;;;;;;;0.70;0.70;;;1.40;99.90;;;;;;4958582;28;20066;-83
2023/03/02 04:36:00;;;;;;;0.60;0.60;;;1.10;99.90;;;;;;4952153;28;20050;-84
2023/03/02 04:38:28;;;;;;;0.80;0.80;;;1.50;99.90;;;;;;4952336;28;20038;-85
2023/03/02 04:40:56;;;;;;;0.70;0.70;;;1.10;99.90;;;;;;4968380;28;20051;-82
2023/03/02 04:43:22;;;;;;;0.70;0.70;;;1.10;99.90;;;;;;4955051;28;20050;-85
2023/03/02 04:45:48;;;;;;;0.70;0.70;;;1.10;99.90;;;;;;4970779;28;20027;-83
2023/03/02 04:48:14;;;;;;;0.70;0.70;;;2.20;99.90;;;;;;4941342;28;20053;-85
2023/03/02 04:50:40;;;;;;;0.68;0.68;;;2.20;99.90;;;;;;4956317;28;20473;-84
2023/03/02 04:53:06;;;;;;;0.60;0.60;;;2.20;99.90;;;;;;4955178;28;20054;-85
2023/03/02 04:55:31;;;;;;;0.85;0.85;;;2.20;99.90;;;;;;4953834;28;20038;-85
2023/03/02 04:57:57;;;;;;;0.68;0.68;;;1.00;99.90;;;;;;4969676;28;20054;-85
2023/03/02 05:00:24;;;;;;;0.60;0.60;;;0.90;99.90;;;;;;4953348;28;20047;-85
2023/03/02 05:02:50;;;;;;;0.60;0.60;;;0.90;99.90;;;;;;4969536;28;20058;-85
2023/03/02 05:05:17;;;;;;;;;;;2.60;99.90;;;;;;4953328;28;20046;-85
2023/03/02 05:07:43;;;;;;;0.65;0.65;;;1.20;99.90;;;;;;4969234;28;19965;-85
2023/03/02 05:10:14;;;;;;;1.02;1.00;;;1.20;99.90;;;;;;4953322;28;20141;-85
2023/03/02 05:13:01;;;;;;;0.80;0.80;;;1.00;99.90;;;;;;4959056;28;20109;-85
2023/03/02 05:15:47;;;;;;;0.80;0.80;;;2.10;99.90;;;;;;4967136;28;20046;-85
2023/03/02 05:18:12;;;;;;;0.70;0.70;;;1.50;99.90;;;;;;4948703;28;20059;-86
2023/03/02 05:20:38;;;;;;;0.70;0.70;;;0.90;99.90;;;;;;4953805;28;20057;-86
2023/03/02 05:23:05;;;;;;;;;;;1.80;99.90;;;;;;4952995;28;20220;-86
2023/03/02 05:25:33;;;;;;;0.95;0.95;;;1.80;99.90;;;;;;4970102;28;20403;-85
2023/03/02 05:27:59;;;;;;;0.65;0.65;;;1.00;99.90;;;;;;4946347;28;20062;-84
2023/03/02 05:30:25;;;;;;;0.80;0.80;;;1.00;99.90;;;;;;4967241;28;20057;-86
2023/03/02 05:32:51;;;;;;;0.60;0.60;;;1.50;99.90;;;;;;4953558;28;20051;-87
2023/03/02 05:35:17;;;;;;;;;;;1.30;99.90;;;;;;4952990;28;20169;-86
2023/03/02 05:37:43;;;;;;;0.90;0.90;;;1.00;99.90;;;;;;4967763;28;20013;-86
2023/03/02 05:40:11;;;;;;;0.80;0.80;;;2.00;99.90;;;;;;4969049;28;20055;-85
2023/03/02 05:42:37;;;;;;;0.60;0.60;;;0.90;99.90;;;;;;4968735;28;20043;-86
2023/03/02 05:45:05;;;;;;;0.60;0.60;;;1.00;99.90;;;;;;4969849;28;20034;-84
2023/03/02 05:47:31;;;;;;;1.95;1.85;;;0.90;99.90;;;;;;4950901;28;20039;-85
2023/03/02 05:49:58;;;;;;;0.75;0.75;;;2.50;99.90;;;;;;4967817;28;20149;-85
2023/03/02 05:52:24;;;;;;;1.00;1.00;;;0.90;99.90;;;;;;5015980;28;20101;-86
2023/03/02 05:54:49;;;;;;;;;;;2.00;99.90;;;;;;4948413;28;20051;-86
2023/03/02 05:57:15;;;;;;;0.70;0.70;;;0.90;99.90;;;;;;4967484;28;19952;-84
2023/03/02 05:59:41;;;;;;;0.60;0.60;;;2.50;99.90;;;;;;4979361;28;20097;-86
2023/03/02 06:02:07;;;;;;;0.50;0.50;;;0.90;99.90;;;;;;4968578;28;20068;-86
2023/03/02 06:04:32;;;;;;;0.70;0.70;;;1.70;99.90;;;;;;4969597;28;20443;-86
2023/03/02 06:06:58;;;;;;;0.70;0.70;;;0.90;99.90;;;;;;4967321;28;20058;-86
2023/03/02 06:09:24;;;;;;;0.60;0.60;;;0.90;99.90;;;;;;4952781;28;20039;-86
2023/03/02 06:11:49;;;;;;;0.60;0.60;;;0.90;99.90;;;;;;4952399;28;20104;-83
2023/03/02 06:14:15;;;;;;;0.60;0.60;;;1.00;99.90;;;;;;4948943;28;20057;-85
2023/03/02 06:16:41;;;;;;;0.70;0.70;;;1.30;99.90;;;;;;4951334;28;20121;-85
2023/03/02 06:19:06;;;;;;;0.80;0.80;;;0.90;99.90;;;;;;4966059;28;20078;-83
2023/03/02 06:21:32;;;;;;;0.70;0.70;;;1.40;99.90;;;;;;4952449;28;20039;-87
2023/03/02 06:23:58;;;;;;;0.60;0.60;;;2.80;99.90;;;;;;4966317;28;20085;-85
2023/03/02 06:26:23;;;;;;;0.90;0.90;;;1.90;99.90;;;;;;4964727;28;20231;-84
2023/03/02 06:28:49;;;;;;;1.10;1.05;;;0.90;99.90;;;;;;4965455;28;20047;-85
2023/03/02 06:31:15;;;;;;;0.80;0.80;;;1.70;99.90;;;;;;4939003;28;20058;-85
2023/03/02 06:33:41;;;;;;;1.15;1.15;;;1.70;99.90;;;;;;4974257;28;20073;-85
2023/03/02 06:36:06;;;;;;;0.70;0.70;;;1.30;99.90;;;;;;4951979;28;20067;-85
2023/03/02 06:38:32;;;;;;;1.85;1.75;;;1.90;99.90;;;;;;4967216;28;20043;-85
2023/03/02 06:40:59;;;;;;;0.63;0.63;;;2.30;99.90;;;;;;4972317;28;20053;-86
2023/03/02 06:43:24;;;;;;;0.80;0.80;;;2.20;99.90;;;;;;4936006;28;20054;-84
2023/03/02 06:45:50;;;;;;;0.70;0.70;;;1.90;99.90;;;;;;4968755;28;20043;-86
2023/03/02 06:48:16;;;;;;;0.70;0.70;;;1.90;99.90;;;;;;4967692;28;20092;-85
2023/03/02 06:50:42;;;;;;;0.80;0.80;;;2.10;99.90;;;;;;4973406;28;20051;-85
2023/03/02 06:53:07;;;;;;;0.70;0.70;;;1.90;99.90;;;;;;4951169;28;20474;-84
2023/03/02 06:55:33;;;;;;;1.85;1.75;;;1.10;99.90;;;;;;4956736;28;20236;-87
2023/03/02 06:57:59;;;;;;;0.70;0.70;;;1.60;99.90;;;;;;4950629;28;20155;-85
2023/03/02 07:00:26;;;;;;;0.73;0.73;;;0.90;99.90;;;;;;4953188;28;20608;-86
2023/03/02 07:02:54;;;;;;;0.60;0.60;;;0.90;99.90;;;;;;4970148;28;20711;-87
2023/03/02 07:05:20;;;;;;;0.93;0.93;;;0.90;99.90;;;;;;4971193;28;20073;-86
2023/03/02 07:07:52;;;;;;;0.70;0.70;;;1.40;99.90;;;;;;4962121;28;20935;-86
2023/03/02 07:10:18;;;;;;;0.80;0.80;;;1.80;99.90;;;;;;4981063;28;20051;-84
2023/03/02 07:12:44;;;;;;;0.90;0.90;;;0.90;99.90;;;;;;4967906;28;20047;-86
2023/03/02 07:15:11;;;;;;;0.60;0.60;;;0.90;99.90;;;;;;4953607;28;20051;-85
2023/03/02 07:17:38;;;;;;;0.90;0.90;;;0.90;99.90;;;;;;4973034;28;20943;-85
2023/03/02 07:20:05;;;;;;;1.00;1.00;;;0.90;99.90;;;;;;4965453;28;20039;-84
2023/03/02 07:22:31;;;;;;;0.70;0.70;;;0.90;99.90;;;;;;4966497;28;20473;-84
2023/03/02 07:24:57;;;;;;;0.73;0.73;;;1.10;99.90;;;;;;4949576;28;20161;-84
2023/03/02 07:27:24;;;;;;;0.60;0.60;;;2.00;99.90;;;;;;4974087;28;20180;-85
2023/03/02 07:29:50;;;;;;;1.05;1.05;;;1.00;99.90;;;;;;4973567;28;20158;-86
2023/03/02 07:32:16;;;;;;;0.93;0.93;;;1.60;99.90;;;;;;4980637;28;20081;-86
2023/03/02 07:34:41;;;;;;;0.75;0.75;;;1.00;99.90;;;;;;4967714;28;20055;-86
2023/03/02 07:37:07;;;;;;;0.60;0.60;;;1.10;99.90;;;;;;4969315;28;20042;-84
2023/03/02 07:39:33;;;;;;;0.70;0.70;;;1.00;99.90;;;;;;4969426;28;20050;-85
2023/03/02 07:42:00;;;;;;;0.70;0.70;;;1.10;99.90;;;;;;4969395;28;20065;-85
2023/03/02 07:44:26;;;;;;;0.70;0.70;;;1.40;99.90;;;;;;4966844;28;20050;-84
2023/03/02 07:46:53;;;;;;;0.60;0.60;;;2.40;99.90;;;;;;4975224;28;20057;-84
2023/03/02 07:49:19;;;;;;;0.60;0.60;;;2.00;99.90;;;;;;4974097;28;20047;-86
2023/03/02 07:51:44;;;;;;;0.93;0.93;;;1.90;99.90;;;;;;4956463;28;20545;-86
2023/03/02 07:54:10;;;;;;;0.63;0.63;;;2.50;99.90;;;;;;4969273;28;20054;-84
2023/03/02 07:56:36;;;;;;;0.70;0.70;;;1.30;99.90;;;;;;4968764;28;20130;-84
2023/03/02 07:59:02;;;;;;;0.60;0.60;;;1.40;99.90;;;;;;4952685;28;20630;-86
2023/03/02 08:01:27;;;;;;;0.57;0.57;;;1.50;99.90;;;;;;4954365;28;20050;-84
2023/03/02 08:03:53;;;;;;;0.70;0.70;;;1.50;99.90;;;;;;4963274;28;20050;-84
2023/03/02 08:06:21;;;;;;;1.23;0.85;;;1.60;99.90;;;;;;4969689;28;22014;-84
2023/03/02 08:08:47;;;;;;;0.65;0.65;;;2.70;99.90;;;;;;4968128;28;20381;-84
2023/03/02 08:11:17;;;;;;;0.70;0.70;;;1.70;99.90;;;;;;4966840;28;20135;-83
2023/03/02 08:13:43;;;;;;;0.60;0.60;;;2.50;99.90;;;;;;4967094;28;20550;-85
2023/03/02 08:16:11;;;;;;;0.70;0.70;;;1.60;99.90;;;;;;4976902;28;20080;-85
2023/03/02 08:18:38;;;;;;;0.73;0.73;;;1.70;99.90;;;;;;4970527;28;20058;-84
2023/03/02 08:21:17;;;;;;;0.80;0.80;;;2.30;99.90;;;;;;4965487;28;20058;-85
2023/03/02 08:23:44;;;;;;;0.60;0.60;;;1.80;99.90;;;;;;4967986;28;20061;-84
2023/03/02 08:26:09;;;;;;;0.70;0.70;;;1.90;99.90;;;;;;4966852;28;20062;-84
2023/03/02 08:28:35;;;;;;;0.57;0.57;;;2.20;99.90;;;;;;4968197;28;20129;-84
2023/03/02 08:31:02;;;;;;;1.48;0.82;;;2.60;99.90;;;;;;4950616;28;20405;-85
2023/03/02 08:33:29;;;;;;;0.50;0.50;;;1.90;99.90;;;;;;4966628;28;20107;-85
2023/03/02 08:35:55;;;;;;;0.60;0.60;;;1.80;99.90;;;;;;4967928;28;20445;-85
2023/03/02 08:38:21;;;;;;;0.70;0.70;;;1.80;99.90;;;;;;4966735;28;20081;-84
2023/03/02 08:40:46;;;;;;;0.70;0.70;;;1.80;99.90;;;;;;4968483;28;20189;-87
2023/03/02 08:43:12;;;;;;;1.00;1.00;;;2.00;99.90;;;;;;4931795;28;20139;-86
2023/03/02 08:45:38;;;;;;;0.60;0.60;;;1.60;99.90;;;;;;4934751;28;20039;-85
2023/03/02 08:48:03;;;;;;;0.85;0.85;;;1.50;99.90;;;;;;4949251;28;20046;-86
2023/03/02 08:50:29;;;;;;;0.70;0.70;;;1.40;99.90;;;;;;4968632;28;20886;-86
2023/03/02 08:52:55;;;;;;;0.63;0.63;;;1.70;99.90;;;;;;4937412;28;20062;-83
2023/03/02 08:55:21;;;;;;;0.80;0.80;;;2.50;99.90;;;;;;4966834;28;20047;-86
2023/03/02 08:57:47;;;;;;;0.80;0.80;;;1.30;99.90;;;;;;4978660;28;20084;-86
2023/03/02 09:00:15;;;;;;;0.73;0.73;;;1.30;99.90;;;;;;4951672;28;20062;-85
2023/03/02 09:02:41;;;;;;;0.70;0.70;;;1.40;99.90;;;;;;4948112;28;20051;-86
2023/03/02 09:05:07;;;;;;;0.70;0.70;;;1.40;99.90;;;;;;4953139;28;20055;-84
2023/03/02 09:07:33;;;;;;;0.60;0.60;;;1.50;99.90;;;;;;4953611;28;20043;-88
2023/03/02 09:09:59;;;;;;;1.02;1.02;;;1.60;99.90;;;;;;4968319;28;20501;-86
2023/03/02 09:12:24;;;;;;;0.80;0.80;;;1.60;99.90;;;;;;4969621;28;20491;-84
2023/03/02 09:14:50;;;;;;;0.63;0.63;;;1.60;99.90;;;;;;4969964;28;20043;-85
2023/03/02 09:17:16;;;;;;;1.00;1.00;;;1.60;99.90;;;;;;4967683;28;20058;-87
2023/03/02 09:19:42;;;;;;;0.98;0.98;;;1.80;99.90;;;;;;4950625;28;20489;-84
2023/03/02 09:22:08;;;;;;;0.70;0.70;;;2.10;99.90;;;;;;4957651;28;20082;-87
2023/03/02 09:24:34;;;;;;;;;;;2.30;99.90;;;;;;4976457;28;20431;-88
2023/03/02 09:27:01;;;;;;;0.70;0.70;;;3.30;99.90;;;;;;4968856;28;20332;-87
2023/03/02 09:29:26;;;;;;;0.68;0.68;;;2.60;99.90;;;;;;4952657;28;20211;-85
2023/03/02 09:31:52;;;;;;;0.70;0.70;;;3.40;99.90;;;;;;4950613;28;20132;-87
2023/03/02 09:34:18;;;;;;;0.68;0.68;;;2.90;99.90;;;;;;4972847;28;20063;-84
2023/03/02 09:36:44;;;;;;;0.70;0.70;;;2.70;99.90;;;;;;4969134;28;20043;-88
2023/03/02 09:39:11;;;;;;;0.60;0.60;;;2.80;99.90;;;;;;4951594;28;20111;-87
2023/03/02 09:42:27;;;;;;;0.55;0.55;;;3.60;99.90;;;;;;4952094;28;20159;-87
2023/03/02 09:45:11;;;;;;;0.60;0.60;;;2.90;99.90;;;;;;5027826;28;20057;-87
2023/03/02 09:47:42;;;;;;;0.60;0.60;;;3.00;99.90;;;;;;5011977;28;20810;-84
2023/03/02 09:50:38;;;;;;;0.63;0.63;;;3.30;99.90;;;;;;4979835;28;20457;-88
2023/03/02 09:53:18;;;;;;;0.60;0.60;;;3.30;99.90;;;;;;4969041;28;20417;-87
2023/03/02 09:55:45;;;;;;;0.80;0.80;;;3.30;99.90;;;;;;4965917;28;20058;-88
2023/03/02 09:58:18;;;;;;;0.60;0.60;;;3.50;99.90;;;;;;4968063;28;20047;-87
2023/03/02 10:00:45;;;;;;;0.47;0.47;;;4.80;99.90;;;;;;4964760;28;20049;-86
2023/03/02 10:03:26;;;;;;;1.42;1.33;;;3.90;99.90;;;;;;4968714;28;20104;-86
2023/03/02 10:05:53;;;;;;;1.17;1.17;;;4.20;99.90;;;;;;4973173;28;20043;-88
2023/03/02 10:08:26;;;;;;;0.90;0.90;;;4.20;99.90;;;;;;4967910;28;20132;-86
2023/03/02 10:10:56;;;;;;;0.68;0.68;;;4.30;99.90;;;;;;4967108;28;20043;-85
2023/03/02 10:13:49;;;;;;;0.70;0.70;;;4.00;99.90;;;;;;4965147;28;20129;-84
2023/03/02 10:16:22;;;;;;;0.57;0.57;;;3.70;99.90;;;;;;4949988;28;20083;-84
2023/03/02 10:19:06;;;;;;;0.60;0.60;;;3.50;99.90;;;;;;4969939;28;20489;-88
2023/03/02 10:21:43;;;;;;;1.70;1.70;;;3.40;99.90;;;;;;4967238;28;20117;-87
2023/03/02 10:24:27;;;;;;;0.70;0.70;;;3.20;99.90;;;;;;4967953;28;20050;-86
2023/03/02 10:26:56;;;;;;;0.60;0.60;;;3.20;99.90;;;;;;4975041;28;20459;-89
2023/03/02 10:29:59;;;;;;;0.60;0.60;;;3.50;99.90;;;;;;4956701;28;20057;-86
2023/03/02 10:32:31;;;;;;;0.80;0.80;;;3.80;99.90;;;;;;4972315;28;20034;-85
2023/03/02 10:35:00;;;;;;;0.70;0.70;;;4.10;99.90;;;;;;4969884;28;20120;-86
2023/03/02 10:37:29;;;;;;;0.82;0.77;;;4.60;99.90;;;;;;4969972;28;20061;-84
2023/03/02 10:39:55;;;;;;;0.55;0.55;;;4.90;99.90;;;;;;4973137;28;20045;-85
2023/03/02 10:42:36;;;;;;;0.70;0.70;;;4.90;99.90;;;;;;4966407;28;20050;-86
2023/03/02 10:45:13;;;;;;;0.50;0.50;;;4.70;99.90;;;;;;4963111;28;20097;-87
2023/03/02 10:47:39;;;;;;;0.80;0.80;;;4.70;99.90;;;;;;4973045;28;20054;-87
2023/03/02 10:50:20;;;;;;;0.75;0.75;;;4.80;99.90;;;;;;4968520;28;20035;-88
2023/03/02 10:52:50;;;;;;;0.80;0.80;;;4.80;99.90;;;;;;4967364;28;20885;-87
2023/03/02 10:55:16;;;;;;;0.50;0.50;;;4.60;99.90;;;;;;4970057;28;21985;-88
2023/03/02 10:57:59;;;;;;;0.60;0.60;;;4.50;99.90;;;;;;4970516;28;20134;-86
2023/03/02 11:00:28;;;;;;;1.05;1.05;;;4.30;99.90;;;;;;4968998;28;20046;-85
2023/03/02 11:02:59;;;;;;;0.50;0.50;;;5.20;99.90;;;;;;4968097;28;20058;-85
2023/03/02 11:05:35;;;;;;;0.50;0.50;;;4.50;99.90;;;;;;4970394;28;20050;-88
2023/03/02 11:08:05;;;;;;;0.52;0.52;;;4.90;99.90;;;;;;4966024;28;20104;-88
2023/03/02 11:10:38;;;;;;;0.63;0.63;;;5.20;99.90;;;;;;4946121;28;20497;-87
2023/03/02 11:13:37;;;;;;;0.70;0.70;;;5.10;99.90;;;;;;4965653;28;20038;-86
2023/03/02 11:16:16;;;;;;;0.50;0.50;;;4.80;99.90;;;;;;4950914;28;20065;-88
2023/03/02 11:18:48;;;;;;;0.43;0.43;;;4.50;99.90;;;;;;4935063;28;20047;-86
2023/03/02 11:21:28;;;;;;;0.50;0.50;;;4.40;99.90;;;;;;4963319;28;20554;-87
2023/03/02 11:23:56;;;;;;;0.57;0.57;;;4.50;99.90;;;;;;4960960;28;20047;-85
2023/03/02 11:26:26;;;;;;;0.50;0.50;;;4.80;99.90;;;;;;4964298;28;20153;-89
2023/03/02 11:29:22;;;;;;;0.50;0.50;;;5.20;99.90;;;;;;4967175;28;20055;-89
2023/03/02 11:31:49;;;;;;;0.60;0.60;;;5.40;99.90;;;;;;4965523;28;20130;-84
2023/03/02 11:34:24;;;;;;;0.82;0.82;;;5.70;99.90;;;;;;4948635;28;20117;-87
2023/03/02 11:37:13;;;;;;;0.52;0.52;;;5.90;99.90;;;;;;4948251;28;20054;-85
2023/03/02 11:39:51;;;;;;;1.25;1.25;;;6.00;99.90;;;;;;4973283;28;20105;-88
2023/03/02 11:42:29;;;;;;;1.25;0.70;;;5.80;99.90;;;;;;4947214;28;20138;-89
2023/03/02 11:44:57;;;;;;;0.70;0.70;;;5.70;99.90;;;;;;4960984;28;20055;-88
2023/03/02 11:47:23;;;;;;;0.60;0.60;;;5.80;99.90;;;;;;4949358;28;20043;-87
2023/03/02 11:49:52;;;;;;;;;;;5.60;99.90;;;;;;4956613;28;20085;-86
2023/03/02 11:52:21;;;;;;;0.95;0.95;;;5.50;99.90;;;;;;4961939;28;19983;-87
2023/03/02 11:55:04;;;;;;;0.70;0.70;;;5.60;99.90;;;;;;4948129;28;20502;-89
2023/03/02 11:57:38;;;;;;;0.50;0.50;;;6.00;99.90;;;;;;4968693;28;20047;-87
2023/03/02 12:00:14;;;;;;;0.40;0.40;;;6.40;99.90;;;;;;4967807;28;20059;-86
2023/03/02 12:02:39;;;;;;;0.60;0.60;;;6.70;99.90;;;;;;4963399;28;20117;-89
2023/03/02 12:05:25;;;;;;;0.50;0.50;;;6.60;99.90;;;;;;4950492;28;20051;-87
2023/03/02 12:08:00;;;;;;;1.58;1.50;;;6.10;99.90;;;;;;4967739;28;20117;-89
2023/03/02 12:10:38;;;;;;;0.50;0.50;;;5.70;99.90;;;;;;4951663;28;20052;-89
2023/03/02 12:13:15;;;;;;;0.50;0.50;;;5.40;99.90;;;;;;4956541;28;20170;-88
2023/03/02 12:15:46;;;;;;;0.52;0.52;;;5.40;99.90;;;;;;4952263;28;20042;-89
2023/03/02 12:18:21;;;;;;;1.65;1.55;;;5.50;99.90;;;;;;4954475;28;20043;-90
2023/03/02 12:21:08;;;;;;;0.50;0.50;;;5.80;99.90;;;;;;4954116;28;20436;-90
2023/03/02 12:23:40;;;;;;;0.60;0.60;;;6.20;99.90;;;;;;4952086;28;20047;-84
2023/03/02 12:26:20;;;;;;;0.93;0.93;;;6.50;99.90;;;;;;4976027;28;20081;-88
2023/03/02 12:29:10;;;;;;;0.60;0.60;;;6.40;99.90;;;;;;4989143;28;20035;-85
2023/03/02 12:31:51;;;;;;;1.50;1.40;;;6.20;99.90;;;;;;4981090;28;20063;-85
2023/03/02 12:34:23;;;;;;;0.63;0.63;;;6.10;99.90;;;;;;4973775;28;20043;-84
2023/03/02 12:36:52;;;;;;;0.60;0.60;;;6.00;99.90;;;;;;4985848;28;20120;-89
2023/03/02 12:39:35;;;;;;;1.08;1.00;;;5.90;99.90;;;;;;4967096;28;20059;-87
2023/03/02 12:42:29;;;;;;;0.95;0.95;;;5.80;99.90;;;;;;4949205;28;20141;-88
2023/03/02 12:45:29;;;;;;;0.60;0.60;;;5.70;99.90;;;;;;4964253;28;20046;-85
2023/03/02 12:48:03;;;;;;;1.80;1.20;;;5.70;99.90;;;;;;4965078;28;20057;-86
2023/03/02 12:50:35;;;;;;;0.40;0.40;;;5.60;99.90;;;;;;4968062;28;20047;-88
2023/03/02 12:53:03;;;;;;;0.70;0.70;;;5.40;99.90;;;;;;4969939;28;20131;-87
2023/03/02 12:55:30;;;;;;;0.95;0.95;;;5.50;99.90;;;;;;4968903;28;20055;-87
2023/03/02 12:58:00;;;;;;;0.60;0.60;;;5.60;99.90;;;;;;4969230;28;20139;-88
2023/03/02 13:00:30;;;;;;;1.00;1.00;;;5.70;99.90;;;;;;4952799;28;20042;-87
2023/03/02 13:02:57;;;;;;;0.70;0.70;;;5.60;99.90;;;;;;4967719;28;20621;-86
2023/03/02 13:05:27;;;;;;;1.20;1.20;;;5.50;99.90;;;;;;4941154;28;20105;-86
2023/03/02 13:08:12;;;;;;;0.60;0.60;;;5.30;99.90;;;;;;4944308;28;20059;-87
2023/03/02 13:10:53;;;;;;;1.48;1.35;;;5.30;99.90;;;;;;4966770;28;20137;-84
2023/03/02 13:13:23;;;;;;;0.68;0.68;;;5.40;99.90;;;;;;4954171;28;20137;-87